createdAt,value
2022-08-05T00:02:24.289Z,1.98
2022-08-05T00:07:59.998Z,2.25
2022-08-05T00:13:03.202Z,2.17
2022-08-05T00:18:06.858Z,1.88
2022-08-05T00:23:13.226Z,2.10
2022-08-05T00:28:29.707Z,1.77
2022-08-05T00:34:54.423Z,1.55
2022-08-05T00:38:56.658Z,1.85
2022-08-05T00:44:04.829Z,1.92
2022-08-05T00:49:08.732Z,1.98
2022-08-05T00:54:17.316Z,1.70
2022-08-05T00:59:23.941Z,1.70
2022-08-05T01:04:29.776Z,1.60
2022-08-05T01:09:33.525Z,2.00
2022-08-05T01:14:46.020Z,1.63
2022-08-05T01:20:01.406Z,1.55
2022-08-05T01:25:53.643Z,1.67
2022-08-05T01:31:03.586Z,1.83
2022-08-05T01:36:20.913Z,2.55
2022-08-05T01:41:28.991Z,2.03
2022-08-05T01:46:42.134Z,1.90
2022-08-05T01:51:51.985Z,1.67
2022-08-05T01:58:12.975Z,1.77
2022-08-05T02:02:29.316Z,1.45
2022-08-05T02:07:36.181Z,1.60
2022-08-05T02:12:51.023Z,1.50
2022-08-05T02:18:31.262Z,1.48
2022-08-05T02:23:30.311Z,1.15
2022-08-05T02:28:41.694Z,1.40
2022-08-05T02:33:57.709Z,1.55
2022-08-05T02:39:08.843Z,1.88
2022-08-05T02:44:17.382Z,1.52
2022-08-05T02:49:22.478Z,1.42
2022-08-05T02:54:34.890Z,1.05
2022-08-05T02:59:50.218Z,1.55
2022-08-05T03:04:59.230Z,1.27
2022-08-05T03:10:02.654Z,1.92
2022-08-05T03:15:07.548Z,1.50
2022-08-05T03:20:16.246Z,1.67
2022-08-05T03:25:33.904Z,1.30
2022-08-05T03:30:47.378Z,1.15
2022-08-05T03:35:52.917Z,1.50
2022-08-05T03:40:58.847Z,1.60
2022-08-05T03:46:02.536Z,1.65
2022-08-05T03:52:38.148Z,2.22
2022-08-05T03:56:42.436Z,1.52
2022-08-05T04:01:48.477Z,1.88
2022-08-05T04:06:54.359Z,2.20
2022-08-05T04:11:59.534Z,1.50
2022-08-05T04:17:03.650Z,1.50
2022-08-05T04:22:12.061Z,1.90
2022-08-05T04:27:15.828Z,1.70
2022-08-05T04:32:31.060Z,1.80
2022-08-05T04:38:00.870Z,1.45
2022-08-05T04:43:04.349Z,1.67
2022-08-05T04:48:16.416Z,1.58
2022-08-05T04:53:33.376Z,1.92
2022-08-05T04:58:37.057Z,1.75
2022-08-05T05:03:42.716Z,1.73
2022-08-05T05:08:49.944Z,1.98
2022-08-05T05:13:55.377Z,1.73
2022-08-05T05:19:18.831Z,1.90
2022-08-05T05:30:04.820Z,1.80
2022-08-05T05:35:09.063Z,1.77
2022-08-05T05:40:16.405Z,1.58
2022-08-05T05:45:23.236Z,1.98
2022-08-05T05:50:28.389Z,1.83
2022-08-05T05:55:51.507Z,1.70
2022-08-05T06:00:56.438Z,1.88
2022-08-05T06:06:00.411Z,1.88
2022-08-05T06:11:06.044Z,2.30
2022-08-05T06:16:31.700Z,2.90
2022-08-05T06:21:36.898Z,2.00
2022-08-05T06:26:52.137Z,2.10
2022-08-05T06:31:55.794Z,2.05
2022-08-05T06:37:00.805Z,2.20
2022-08-05T06:42:06.155Z,2.05
2022-08-05T06:47:30.326Z,2.08
2022-08-05T06:52:36.887Z,1.92
2022-08-05T06:58:03.185Z,2.17
2022-08-05T07:03:07.544Z,2.13
2022-08-05T07:08:13.234Z,1.80
2022-08-05T07:13:58.698Z,1.95
2022-08-05T07:18:58.424Z,1.70
2022-08-05T07:24:05.732Z,1.50
2022-08-05T07:29:16.501Z,1.88
2022-08-05T07:34:27.431Z,1.45
2022-08-05T07:40:26.339Z,1.42
2022-08-05T07:44:56.909Z,1.48
2022-08-05T07:50:06.571Z,1.30
2022-08-05T07:55:15.804Z,1.30
2022-08-05T08:00:35.837Z,1.40
2022-08-05T08:05:39.516Z,1.20
2022-08-05T08:10:48.778Z,1.40
2022-08-05T08:16:34.424Z,0.90
2022-08-05T08:21:17.797Z,0.90
2022-08-05T08:26:26.863Z,1.05
2022-08-05T08:31:34.714Z,0.90
2022-08-05T08:36:48.889Z,1.10
2022-08-05T08:42:00.009Z,0.82
2022-08-05T08:47:47.405Z,1.00
2022-08-05T08:52:34.536Z,0.85
2022-08-05T08:57:42.362Z,1.15
2022-08-05T09:03:03.364Z,1.52
2022-08-05T09:08:08.161Z,0.82
2022-08-05T09:18:44.550Z,0.98
2022-08-05T09:23:47.930Z,1.15
2022-08-05T09:28:55.415Z,0.85
2022-08-05T09:34:02.717Z,0.98
2022-08-05T09:39:16.400Z,0.95
2022-08-05T09:44:35.436Z,1.10
2022-08-05T09:50:01.056Z,1.00
2022-08-05T09:55:56.586Z,1.00
2022-08-05T10:00:30.860Z,1.00
2022-08-05T10:05:38.440Z,1.00
2022-08-05T10:10:53.878Z,1.10
2022-08-05T10:15:58.684Z,1.00
2022-08-05T10:21:11.742Z,0.90
2022-08-05T10:26:24.178Z,1.08
2022-08-05T10:32:51.522Z,1.17
2022-08-05T10:36:53.673Z,1.17
2022-08-05T10:42:03.735Z,1.30
2022-08-05T10:47:26.280Z,1.50
2022-08-05T10:52:49.468Z,1.42
2022-08-05T10:58:14.871Z,1.40
2022-08-05T11:03:23.380Z,1.10
2022-08-05T11:08:37.432Z,1.38
2022-08-05T11:13:57.752Z,1.27
2022-08-05T11:20:15.713Z,1.15
2022-08-05T11:26:04.585Z,1.30
2022-08-05T11:31:56.361Z,1.23
2022-08-05T11:36:52.973Z,1.25
2022-08-05T11:42:02.338Z,1.50
2022-08-05T11:47:15.259Z,1.60
2022-08-05T11:52:29.235Z,1.60
2022-08-05T11:58:08.289Z,1.40
2022-08-05T12:02:58.194Z,1.58
2022-08-05T12:08:03.609Z,1.50
2022-08-05T12:13:27.888Z,1.48
2022-08-05T12:18:40.545Z,1.35
2022-08-05T12:24:00.015Z,1.77
2022-08-05T12:29:16.158Z,1.40
2022-08-05T12:34:23.602Z,1.50
2022-08-05T12:39:37.293Z,1.50
2022-08-05T12:44:47.589Z,1.38
2022-08-05T12:50:03.018Z,1.70
2022-08-05T12:55:22.276Z,1.35
2022-08-05T13:02:00.103Z,1.67
2022-08-05T13:05:54.713Z,1.65
2022-08-05T13:11:02.306Z,1.92
2022-08-05T13:16:16.681Z,1.92
2022-08-05T13:21:20.232Z,1.60
2022-08-05T13:26:30.133Z,1.80
2022-08-05T13:32:04.315Z,1.63
2022-08-05T13:36:58.431Z,1.73
2022-08-05T13:42:01.717Z,1.73
2022-08-05T13:47:09.054Z,1.73
2022-08-05T13:52:16.101Z,1.83
2022-08-05T13:57:19.711Z,1.90
2022-08-05T14:08:00.844Z,1.80
2022-08-05T14:13:07.542Z,1.90
2022-08-05T14:18:14.915Z,1.80
2022-08-05T14:23:25.306Z,2.20
2022-08-05T14:28:30.559Z,2.05
2022-08-05T14:33:59.316Z,2.30
2022-08-05T14:38:59.181Z,2.35
2022-08-05T14:44:10.067Z,2.50
2022-08-05T14:49:25.462Z,2.30
2022-08-05T14:54:52.798Z,2.10
2022-08-05T14:59:56.732Z,2.60
2022-08-05T15:05:01.532Z,2.72
2022-08-05T15:10:12.260Z,2.40
2022-08-05T15:15:15.860Z,2.15
2022-08-05T15:20:24.700Z,1.90
2022-08-05T15:25:50.933Z,2.10
2022-08-05T15:30:53.105Z,1.92
2022-08-05T15:35:59.073Z,2.20
2022-08-05T15:41:22.430Z,2.05
2022-08-05T15:46:27.441Z,2.10
2022-08-05T15:52:04.306Z,1.80
2022-08-05T15:56:55.965Z,2.00
2022-08-05T16:01:59.565Z,1.80
2022-08-05T16:07:15.788Z,2.08
2022-08-05T16:12:21.311Z,2.10
2022-08-05T16:17:25.574Z,2.33
2022-08-05T16:22:33.984Z,2.30
2022-08-05T16:28:01.014Z,2.55
2022-08-05T16:33:03.839Z,2.60
2022-08-05T16:38:23.851Z,2.45
2022-08-05T16:43:31.556Z,2.17
2022-08-05T16:48:37.007Z,2.65
2022-08-05T16:54:02.488Z,2.78
2022-08-05T16:59:10.474Z,2.90
2022-08-05T17:04:18.645Z,2.90
2022-08-05T17:09:39.055Z,2.40
2022-08-05T17:14:55.319Z,2.90
2022-08-05T17:19:58.565Z,2.47
2022-08-05T17:25:09.584Z,2.90
2022-08-05T17:30:30.224Z,3.08
2022-08-05T17:36:08.111Z,2.55
2022-08-05T17:41:11.666Z,2.47
2022-08-05T17:46:33.634Z,2.67
2022-08-05T17:51:40.519Z,2.60
2022-08-05T17:56:48.970Z,2.30
2022-08-05T18:02:10.770Z,2.60
2022-08-05T18:07:20.505Z,2.22
2022-08-05T18:12:48.772Z,2.50
2022-08-05T18:18:00.987Z,2.00
2022-08-05T18:28:56.543Z,1.95
2022-08-05T18:33:59.951Z,2.17
2022-08-05T18:39:06.438Z,2.00
2022-08-05T18:44:34.916Z,1.80
2022-08-05T18:50:02.134Z,1.95
2022-08-05T18:55:10.301Z,2.97
2022-08-05T19:00:24.395Z,3.63
2022-08-05T19:06:11.823Z,3.08
2022-08-05T19:11:08.884Z,3.67
2022-08-05T19:16:28.501Z,3.42
2022-08-05T19:21:36.116Z,3.70
2022-08-05T19:26:44.080Z,3.72
2022-08-05T19:32:01.351Z,3.85
2022-08-05T19:37:06.662Z,4.00
2022-08-05T19:42:10.187Z,3.97
2022-08-05T19:47:23.860Z,5.50
2022-08-05T19:52:32.442Z,5.47
2022-08-05T19:57:47.281Z,6.90
2022-08-05T20:03:00.950Z,5.88
2022-08-05T20:08:11.815Z,6.35
2022-08-05T20:13:15.555Z,6.22
2022-08-05T20:18:33.187Z,5.78
2022-08-05T20:23:50.376Z,4.93
2022-08-05T20:28:58.058Z,5.20
2022-08-05T20:34:05.663Z,5.22
2022-08-05T20:39:16.451Z,5.93
2022-08-05T20:44:30.363Z,5.78
2022-08-05T20:49:39.336Z,5.45
2022-08-05T20:55:15.891Z,6.20
2022-08-05T21:00:21.065Z,5.85
2022-08-05T21:05:47.776Z,5.50
2022-08-05T21:10:58.503Z,5.45
2022-08-05T21:16:02.096Z,5.75
2022-08-05T21:21:10.554Z,5.75
2022-08-05T21:26:15.024Z,5.57
2022-08-05T21:31:20.361Z,5.05
2022-08-05T21:36:29.923Z,5.88
2022-08-05T21:41:37.227Z,5.85
2022-08-05T21:46:41.880Z,5.57
2022-08-05T21:52:21.871Z,5.80
2022-08-05T21:57:30.209Z,5.47
2022-08-05T22:02:34.086Z,5.40
2022-08-05T22:07:59.518Z,5.80
2022-08-05T22:13:09.228Z,5.10
2022-08-05T22:24:13.179Z,5.13
2022-08-05T22:29:36.046Z,5.53
2022-08-05T22:34:39.249Z,4.47
2022-08-05T22:39:45.257Z,4.70
2022-08-05T22:44:56.669Z,5.57
2022-08-05T22:50:18.084Z,5.57
2022-08-05T22:55:26.123Z,5.45
2022-08-05T23:00:32.376Z,5.13
2022-08-05T23:05:36.468Z,5.70
2022-08-05T23:10:43.985Z,4.47
2022-08-05T23:15:50.310Z,4.68
2022-08-05T23:20:53.717Z,4.60
2022-08-05T23:25:58.239Z,3.67
2022-08-05T23:31:17.141Z,3.50
2022-08-05T23:41:50.099Z,3.30
2022-08-05T23:46:53.330Z,2.30
2022-08-05T23:52:16.773Z,2.50
2022-08-05T23:57:22.485Z,1.55
